sensor_id;sensor_type;location;lat;lon;timestamp;P1;durP1;ratioP1;P2;durP2;ratioP2
48847;SDS011;36611;51.638;5.784;2023-07-31T00:02:14;1.65;;;0.68;;
48847;SDS011;36611;51.638;5.784;2023-07-31T00:04:41;1.05;;;0.70;;
48847;SDS011;36611;51.638;5.784;2023-07-31T00:07:07;0.73;;;0.52;;
48847;SDS011;36611;51.638;5.784;2023-07-31T00:09:34;0.80;;;0.52;;
48847;SDS011;36611;51.638;5.784;2023-07-31T00:12:01;1.30;;;0.65;;
48847;SDS011;36611;51.638;5.784;2023-07-31T00:14:27;0.95;;;0.60;;
48847;SDS011;36611;51.638;5.784;2023-07-31T00:16:54;1.48;;;0.68;;
48847;SDS011;36611;51.638;5.784;2023-07-31T00:19:20;1.25;;;0.65;;
48847;SDS011;36611;51.638;5.784;2023-07-31T00:21:47;1.52;;;0.77;;
48847;SDS011;36611;51.638;5.784;2023-07-31T00:24:14;1.25;;;0.80;;
48847;SDS011;36611;51.638;5.784;2023-07-31T00:26:40;1.27;;;0.55;;
48847;SDS011;36611;51.638;5.784;2023-07-31T00:29:07;1.08;;;0.70;;
48847;SDS011;36611;51.638;5.784;2023-07-31T00:31:34;0.90;;;0.70;;
48847;SDS011;36611;51.638;5.784;2023-07-31T00:34:00;0.90;;;0.70;;
48847;SDS011;36611;51.638;5.784;2023-07-31T00:36:27;0.82;;;0.45;;
48847;SDS011;36611;51.638;5.784;2023-07-31T00:38:53;0.82;;;0.55;;
48847;SDS011;36611;51.638;5.784;2023-07-31T00:41:20;1.23;;;0.70;;
48847;SDS011;36611;51.638;5.784;2023-07-31T00:43:47;1.13;;;0.73;;
48847;SDS011;36611;51.638;5.784;2023-07-31T00:46:14;1.15;;;0.50;;
48847;SDS011;36611;51.638;5.784;2023-07-31T00:48:40;1.05;;;0.50;;
48847;SDS011;36611;51.638;5.784;2023-07-31T00:51:07;1.27;;;0.75;;
48847;SDS011;36611;51.638;5.784;2023-07-31T00:53:34;1.20;;;0.60;;
48847;SDS011;36611;51.638;5.784;2023-07-31T00:56:01;1.23;;;0.70;;
48847;SDS011;36611;51.638;5.784;2023-07-31T00:58:30;1.23;;;0.70;;
48847;SDS011;36611;51.638;5.784;2023-07-31T01:00:57;1.13;;;0.75;;
48847;SDS011;36611;51.638;5.784;2023-07-31T01:03:24;1.48;;;0.68;;
48847;SDS011;36611;51.638;5.784;2023-07-31T01:11:30;1.45;;;0.60;;
48847;SDS011;36611;51.638;5.784;2023-07-31T01:13:59;1.13;;;0.70;;
48847;SDS011;36611;51.638;5.784;2023-07-31T01:16:27;0.90;;;0.70;;
48847;SDS011;36611;51.638;5.784;2023-07-31T01:18:53;1.50;;;0.80;;
48847;SDS011;36611;51.638;5.784;2023-07-31T01:21:39;1.50;;;0.82;;
48847;SDS011;36611;51.638;5.784;2023-07-31T01:27:31;1.90;;;0.90;;
48847;SDS011;36611;51.638;5.784;2023-07-31T01:30:07;1.20;;;0.65;;
48847;SDS011;36611;51.638;5.784;2023-07-31T01:32:40;1.13;;;0.70;;
48847;SDS011;36611;51.638;5.784;2023-07-31T01:35:09;1.27;;;0.73;;
48847;SDS011;36611;51.638;5.784;2023-07-31T01:37:36;1.25;;;0.85;;
48847;SDS011;36611;51.638;5.784;2023-07-31T01:40:04;2.15;;;0.75;;
48847;SDS011;36611;51.638;5.784;2023-07-31T01:42:32;1.30;;;0.82;;
48847;SDS011;36611;51.638;5.784;2023-07-31T01:44:58;2.38;;;0.77;;
48847;SDS011;36611;51.638;5.784;2023-07-31T01:47:25;0.98;;;0.80;;
48847;SDS011;36611;51.638;5.784;2023-07-31T01:49:52;1.33;;;0.80;;
48847;SDS011;36611;51.638;5.784;2023-07-31T01:52:18;1.52;;;0.95;;
48847;SDS011;36611;51.638;5.784;2023-07-31T01:54:45;2.00;;;1.00;;
48847;SDS011;36611;51.638;5.784;2023-07-31T01:57:11;2.10;;;0.88;;
48847;SDS011;36611;51.638;5.784;2023-07-31T01:59:38;1.00;;;0.77;;
48847;SDS011;36611;51.638;5.784;2023-07-31T02:02:05;1.27;;;0.68;;
48847;SDS011;36611;51.638;5.784;2023-07-31T02:04:32;1.45;;;0.90;;
48847;SDS011;36611;51.638;5.784;2023-07-31T02:06:58;1.70;;;1.00;;
48847;SDS011;36611;51.638;5.784;2023-07-31T02:09:25;1.77;;;1.00;;
48847;SDS011;36611;51.638;5.784;2023-07-31T02:11:51;1.33;;;0.82;;
48847;SDS011;36611;51.638;5.784;2023-07-31T02:14:18;1.33;;;0.80;;
48847;SDS011;36611;51.638;5.784;2023-07-31T02:16:44;2.35;;;1.00;;
48847;SDS011;36611;51.638;5.784;2023-07-31T02:19:11;1.48;;;1.10;;
48847;SDS011;36611;51.638;5.784;2023-07-31T02:21:38;2.60;;;1.20;;
48847;SDS011;36611;51.638;5.784;2023-07-31T02:24:04;1.60;;;1.10;;
48847;SDS011;36611;51.638;5.784;2023-07-31T02:26:31;1.35;;;0.80;;
48847;SDS011;36611;51.638;5.784;2023-07-31T02:28:57;1.30;;;0.80;;
48847;SDS011;36611;51.638;5.784;2023-07-31T02:31:24;1.38;;;1.00;;
48847;SDS011;36611;51.638;5.784;2023-07-31T02:33:50;1.38;;;0.82;;
48847;SDS011;36611;51.638;5.784;2023-07-31T02:36:17;1.95;;;1.13;;
48847;SDS011;36611;51.638;5.784;2023-07-31T02:38:44;1.55;;;0.88;;
48847;SDS011;36611;51.638;5.784;2023-07-31T02:41:10;1.65;;;1.10;;
48847;SDS011;36611;51.638;5.784;2023-07-31T02:43:37;1.95;;;1.30;;
48847;SDS011;36611;51.638;5.784;2023-07-31T02:46:04;1.50;;;1.00;;
48847;SDS011;36611;51.638;5.784;2023-07-31T02:48:31;1.33;;;0.93;;
48847;SDS011;36611;51.638;5.784;2023-07-31T02:50:57;1.65;;;0.98;;
48847;SDS011;36611;51.638;5.784;2023-07-31T02:53:24;1.60;;;1.00;;
48847;SDS011;36611;51.638;5.784;2023-07-31T02:55:51;1.50;;;1.10;;
48847;SDS011;36611;51.638;5.784;2023-07-31T02:58:17;1.55;;;1.00;;
48847;SDS011;36611;51.638;5.784;2023-07-31T03:00:44;1.27;;;0.93;;
48847;SDS011;36611;51.638;5.784;2023-07-31T03:03:11;1.42;;;0.95;;
48847;SDS011;36611;51.638;5.784;2023-07-31T03:05:38;1.75;;;1.05;;
48847;SDS011;36611;51.638;5.784;2023-07-31T03:08:05;1.60;;;1.00;;
48847;SDS011;36611;51.638;5.784;2023-07-31T03:10:31;2.88;;;1.50;;
48847;SDS011;36611;51.638;5.784;2023-07-31T03:12:58;1.05;;;0.90;;
48847;SDS011;36611;51.638;5.784;2023-07-31T03:15:25;1.30;;;1.10;;
48847;SDS011;36611;51.638;5.784;2023-07-31T03:17:51;2.95;;;1.25;;
48847;SDS011;36611;51.638;5.784;2023-07-31T03:20:18;1.52;;;1.00;;
48847;SDS011;36611;51.638;5.784;2023-07-31T03:22:45;2.25;;;1.42;;
48847;SDS011;36611;51.638;5.784;2023-07-31T03:25:12;1.65;;;1.00;;
48847;SDS011;36611;51.638;5.784;2023-07-31T03:27:39;2.40;;;1.20;;
48847;SDS011;36611;51.638;5.784;2023-07-31T03:30:05;1.60;;;1.02;;
48847;SDS011;36611;51.638;5.784;2023-07-31T03:32:32;1.85;;;1.20;;
48847;SDS011;36611;51.638;5.784;2023-07-31T03:34:59;1.42;;;0.90;;
48847;SDS011;36611;51.638;5.784;2023-07-31T03:37:26;2.00;;;1.13;;
48847;SDS011;36611;51.638;5.784;2023-07-31T03:39:53;2.58;;;1.42;;
48847;SDS011;36611;51.638;5.784;2023-07-31T03:42:19;1.73;;;1.00;;
48847;SDS011;36611;51.638;5.784;2023-07-31T03:44:46;1.63;;;1.20;;
48847;SDS011;36611;51.638;5.784;2023-07-31T03:47:12;2.42;;;1.58;;
48847;SDS011;36611;51.638;5.784;2023-07-31T03:49:39;1.58;;;1.25;;
48847;SDS011;36611;51.638;5.784;2023-07-31T03:52:06;1.50;;;1.30;;
48847;SDS011;36611;51.638;5.784;2023-07-31T03:54:32;1.48;;;1.05;;
48847;SDS011;36611;51.638;5.784;2023-07-31T03:56:59;1.85;;;1.20;;
48847;SDS011;36611;51.638;5.784;2023-07-31T03:59:26;3.03;;;1.30;;
48847;SDS011;36611;51.638;5.784;2023-07-31T04:01:52;1.45;;;1.20;;
48847;SDS011;36611;51.638;5.784;2023-07-31T04:04:19;2.35;;;1.30;;
48847;SDS011;36611;51.638;5.784;2023-07-31T04:06:45;1.85;;;1.10;;
48847;SDS011;36611;51.638;5.784;2023-07-31T04:09:12;1.90;;;1.02;;
48847;SDS011;36611;51.638;5.784;2023-07-31T04:11:38;2.13;;;1.30;;
48847;SDS011;36611;51.638;5.784;2023-07-31T04:14:05;2.53;;;1.33;;
48847;SDS011;36611;51.638;5.784;2023-07-31T04:16:32;2.20;;;1.23;;
48847;SDS011;36611;51.638;5.784;2023-07-31T04:18:58;3.35;;;1.50;;
48847;SDS011;36611;51.638;5.784;2023-07-31T04:21:25;2.22;;;1.30;;
48847;SDS011;36611;51.638;5.784;2023-07-31T04:23:51;1.95;;;1.20;;
48847;SDS011;36611;51.638;5.784;2023-07-31T04:26:22;2.47;;;1.48;;
48847;SDS011;36611;51.638;5.784;2023-07-31T04:28:48;1.65;;;1.25;;
48847;SDS011;36611;51.638;5.784;2023-07-31T04:31:15;2.00;;;1.40;;
48847;SDS011;36611;51.638;5.784;2023-07-31T04:33:42;2.80;;;1.55;;
48847;SDS011;36611;51.638;5.784;2023-07-31T04:36:08;2.22;;;1.60;;
48847;SDS011;36611;51.638;5.784;2023-07-31T04:38:35;2.17;;;1.30;;
48847;SDS011;36611;51.638;5.784;2023-07-31T04:41:01;2.08;;;1.23;;
48847;SDS011;36611;51.638;5.784;2023-07-31T04:43:28;2.30;;;1.55;;
48847;SDS011;36611;51.638;5.784;2023-07-31T04:45:54;2.20;;;1.33;;
48847;SDS011;36611;51.638;5.784;2023-07-31T04:48:21;2.90;;;1.23;;
48847;SDS011;36611;51.638;5.784;2023-07-31T04:50:48;2.40;;;1.30;;
48847;SDS011;36611;51.638;5.784;2023-07-31T04:53:14;1.73;;;1.30;;
48847;SDS011;36611;51.638;5.784;2023-07-31T04:55:41;3.42;;;1.50;;
48847;SDS011;36611;51.638;5.784;2023-07-31T04:58:07;2.33;;;1.30;;
48847;SDS011;36611;51.638;5.784;2023-07-31T05:00:34;2.30;;;1.42;;
48847;SDS011;36611;51.638;5.784;2023-07-31T05:03:00;2.20;;;1.23;;
48847;SDS011;36611;51.638;5.784;2023-07-31T05:05:27;2.15;;;1.58;;
48847;SDS011;36611;51.638;5.784;2023-07-31T05:07:53;2.25;;;1.40;;
48847;SDS011;36611;51.638;5.784;2023-07-31T05:10:20;2.95;;;2.00;;
48847;SDS011;36611;51.638;5.784;2023-07-31T05:12:47;1.80;;;1.48;;
48847;SDS011;36611;51.638;5.784;2023-07-31T05:15:13;2.55;;;1.58;;
48847;SDS011;36611;51.638;5.784;2023-07-31T05:17:42;3.15;;;1.23;;
48847;SDS011;36611;51.638;5.784;2023-07-31T05:20:08;2.22;;;1.50;;
48847;SDS011;36611;51.638;5.784;2023-07-31T05:22:35;1.85;;;1.38;;
48847;SDS011;36611;51.638;5.784;2023-07-31T05:25:02;2.35;;;1.60;;
48847;SDS011;36611;51.638;5.784;2023-07-31T05:27:28;2.15;;;1.40;;
48847;SDS011;36611;51.638;5.784;2023-07-31T05:29:56;2.60;;;1.40;;
48847;SDS011;36611;51.638;5.784;2023-07-31T05:32:22;2.00;;;1.50;;
48847;SDS011;36611;51.638;5.784;2023-07-31T05:34:52;2.38;;;1.48;;
48847;SDS011;36611;51.638;5.784;2023-07-31T05:37:19;3.10;;;1.67;;
48847;SDS011;36611;51.638;5.784;2023-07-31T05:39:46;2.70;;;1.48;;
48847;SDS011;36611;51.638;5.784;2023-07-31T05:42:12;2.42;;;1.30;;
48847;SDS011;36611;51.638;5.784;2023-07-31T05:44:39;2.42;;;1.40;;
48847;SDS011;36611;51.638;5.784;2023-07-31T05:47:06;2.47;;;1.20;;
48847;SDS011;36611;51.638;5.784;2023-07-31T05:49:32;3.00;;;1.75;;
48847;SDS011;36611;51.638;5.784;2023-07-31T05:51:59;3.05;;;1.70;;
48847;SDS011;36611;51.638;5.784;2023-07-31T05:54:26;2.97;;;1.30;;
48847;SDS011;36611;51.638;5.784;2023-07-31T05:56:52;3.20;;;1.70;;
48847;SDS011;36611;51.638;5.784;2023-07-31T05:59:19;2.45;;;1.55;;
48847;SDS011;36611;51.638;5.784;2023-07-31T06:01:45;2.72;;;1.60;;
48847;SDS011;36611;51.638;5.784;2023-07-31T06:04:12;2.80;;;1.75;;
48847;SDS011;36611;51.638;5.784;2023-07-31T06:06:39;2.28;;;1.63;;
48847;SDS011;36611;51.638;5.784;2023-07-31T06:09:06;2.15;;;1.48;;
48847;SDS011;36611;51.638;5.784;2023-07-31T06:11:33;2.60;;;1.48;;
48847;SDS011;36611;51.638;5.784;2023-07-31T06:13:59;2.22;;;1.55;;
48847;SDS011;36611;51.638;5.784;2023-07-31T06:16:26;2.35;;;1.50;;
48847;SDS011;36611;51.638;5.784;2023-07-31T06:18:53;2.67;;;1.63;;
48847;SDS011;36611;51.638;5.784;2023-07-31T06:21:20;2.63;;;1.65;;
48847;SDS011;36611;51.638;5.784;2023-07-31T06:23:46;3.15;;;1.50;;
48847;SDS011;36611;51.638;5.784;2023-07-31T06:26:13;3.78;;;1.67;;
48847;SDS011;36611;51.638;5.784;2023-07-31T06:28:40;2.85;;;1.75;;
48847;SDS011;36611;51.638;5.784;2023-07-31T06:31:07;2.92;;;1.58;;
48847;SDS011;36611;51.638;5.784;2023-07-31T06:33:34;2.15;;;1.48;;
48847;SDS011;36611;51.638;5.784;2023-07-31T06:36:01;2.22;;;1.70;;
48847;SDS011;36611;51.638;5.784;2023-07-31T06:38:27;2.35;;;1.60;;
48847;SDS011;36611;51.638;5.784;2023-07-31T06:40:54;2.42;;;1.50;;
48847;SDS011;36611;51.638;5.784;2023-07-31T06:43:21;2.25;;;1.55;;
48847;SDS011;36611;51.638;5.784;2023-07-31T06:45:47;2.75;;;1.70;;
48847;SDS011;36611;51.638;5.784;2023-07-31T06:48:17;1.98;;;1.30;;
48847;SDS011;36611;51.638;5.784;2023-07-31T06:50:44;3.28;;;1.70;;
48847;SDS011;36611;51.638;5.784;2023-07-31T06:53:10;2.35;;;1.60;;
48847;SDS011;36611;51.638;5.784;2023-07-31T06:55:37;2.22;;;1.73;;
48847;SDS011;36611;51.638;5.784;2023-07-31T06:58:03;3.00;;;1.58;;
48847;SDS011;36611;51.638;5.784;2023-07-31T07:00:30;2.53;;;1.90;;
48847;SDS011;36611;51.638;5.784;2023-07-31T07:02:57;2.60;;;2.00;;
48847;SDS011;36611;51.638;5.784;2023-07-31T07:05:24;2.58;;;1.90;;
48847;SDS011;36611;51.638;5.784;2023-07-31T07:07:51;1.90;;;1.60;;
48847;SDS011;36611;51.638;5.784;2023-07-31T07:10:18;3.38;;;1.40;;
48847;SDS011;36611;51.638;5.784;2023-07-31T07:12:45;2.85;;;1.55;;
48847;SDS011;36611;51.638;5.784;2023-07-31T07:15:12;2.67;;;1.50;;
48847;SDS011;36611;51.638;5.784;2023-07-31T07:17:39;1.88;;;1.33;;
48847;SDS011;36611;51.638;5.784;2023-07-31T07:20:06;2.47;;;1.52;;
48847;SDS011;36611;51.638;5.784;2023-07-31T07:22:34;2.05;;;1.50;;
48847;SDS011;36611;51.638;5.784;2023-07-31T07:25:02;2.08;;;1.50;;
48847;SDS011;36611;51.638;5.784;2023-07-31T07:27:30;3.55;;;1.67;;
48847;SDS011;36611;51.638;5.784;2023-07-31T07:29:57;2.28;;;1.42;;
48847;SDS011;36611;51.638;5.784;2023-07-31T07:32:25;2.15;;;1.42;;
48847;SDS011;36611;51.638;5.784;2023-07-31T07:34:52;2.58;;;1.70;;
48847;SDS011;36611;51.638;5.784;2023-07-31T07:37:19;2.45;;;1.70;;
48847;SDS011;36611;51.638;5.784;2023-07-31T07:39:45;2.75;;;1.58;;
48847;SDS011;36611;51.638;5.784;2023-07-31T07:42:12;2.83;;;1.70;;
48847;SDS011;36611;51.638;5.784;2023-07-31T07:44:39;2.35;;;1.50;;
48847;SDS011;36611;51.638;5.784;2023-07-31T07:47:05;2.15;;;1.33;;
48847;SDS011;36611;51.638;5.784;2023-07-31T07:49:33;2.35;;;1.40;;
48847;SDS011;36611;51.638;5.784;2023-07-31T07:52:01;2.38;;;1.60;;
48847;SDS011;36611;51.638;5.784;2023-07-31T07:54:29;2.40;;;1.42;;
48847;SDS011;36611;51.638;5.784;2023-07-31T07:56:56;3.40;;;1.48;;
48847;SDS011;36611;51.638;5.784;2023-07-31T07:59:23;2.65;;;1.88;;
48847;SDS011;36611;51.638;5.784;2023-07-31T08:01:50;2.35;;;1.25;;
48847;SDS011;36611;51.638;5.784;2023-07-31T08:04:17;3.50;;;1.48;;
48847;SDS011;36611;51.638;5.784;2023-07-31T08:06:43;2.58;;;1.55;;
48847;SDS011;36611;51.638;5.784;2023-07-31T08:09:10;2.35;;;1.45;;
48847;SDS011;36611;51.638;5.784;2023-07-31T08:11:36;1.80;;;1.40;;
48847;SDS011;36611;51.638;5.784;2023-07-31T08:14:03;1.92;;;1.20;;
48847;SDS011;36611;51.638;5.784;2023-07-31T08:16:30;1.88;;;1.30;;
48847;SDS011;36611;51.638;5.784;2023-07-31T08:18:56;4.05;;;1.40;;
48847;SDS011;36611;51.638;5.784;2023-07-31T08:21:23;2.42;;;1.58;;
48847;SDS011;36611;51.638;5.784;2023-07-31T08:23:50;2.40;;;1.40;;
48847;SDS011;36611;51.638;5.784;2023-07-31T08:26:17;2.80;;;1.50;;
48847;SDS011;36611;51.638;5.784;2023-07-31T08:28:45;2.28;;;1.50;;
48847;SDS011;36611;51.638;5.784;2023-07-31T08:31:12;2.58;;;1.25;;
48847;SDS011;36611;51.638;5.784;2023-07-31T08:33:38;2.35;;;1.45;;
48847;SDS011;36611;51.638;5.784;2023-07-31T08:36:06;2.40;;;1.52;;
48847;SDS011;36611;51.638;5.784;2023-07-31T08:38:33;2.30;;;1.38;;
48847;SDS011;36611;51.638;5.784;2023-07-31T08:41:00;2.20;;;1.73;;
48847;SDS011;36611;51.638;5.784;2023-07-31T08:43:26;1.95;;;1.25;;
48847;SDS011;36611;51.638;5.784;2023-07-31T08:45:54;2.70;;;1.30;;
48847;SDS011;36611;51.638;5.784;2023-07-31T08:48:21;1.52;;;1.17;;
48847;SDS011;36611;51.638;5.784;2023-07-31T08:50:49;1.88;;;1.30;;
48847;SDS011;36611;51.638;5.784;2023-07-31T08:53:17;2.05;;;1.42;;
48847;SDS011;36611;51.638;5.784;2023-07-31T08:55:44;1.40;;;1.13;;
48847;SDS011;36611;51.638;5.784;2023-07-31T08:58:12;2.30;;;1.20;;
48847;SDS011;36611;51.638;5.784;2023-07-31T09:00:41;1.67;;;1.40;;
48847;SDS011;36611;51.638;5.784;2023-07-31T09:03:14;2.47;;;1.50;;
48847;SDS011;36611;51.638;5.784;2023-07-31T09:05:43;2.85;;;1.38;;
48847;SDS011;36611;51.638;5.784;2023-07-31T09:08:15;1.92;;;1.25;;
48847;SDS011;36611;51.638;5.784;2023-07-31T09:10:46;2.03;;;1.30;;
48847;SDS011;36611;51.638;5.784;2023-07-31T09:13:14;1.65;;;1.23;;
48847;SDS011;36611;51.638;5.784;2023-07-31T09:15:43;1.67;;;1.30;;
48847;SDS011;36611;51.638;5.784;2023-07-31T09:18:11;1.80;;;1.13;;
48847;SDS011;36611;51.638;5.784;2023-07-31T09:20:38;1.90;;;1.30;;
48847;SDS011;36611;51.638;5.784;2023-07-31T09:23:12;2.15;;;1.30;;
48847;SDS011;36611;51.638;5.784;2023-07-31T09:25:43;2.10;;;1.15;;
48847;SDS011;36611;51.638;5.784;2023-07-31T09:28:10;2.00;;;1.38;;
48847;SDS011;36611;51.638;5.784;2023-07-31T09:35:40;1.90;;;1.20;;
48847;SDS011;36611;51.638;5.784;2023-07-31T09:38:12;2.17;;;1.52;;
48847;SDS011;36611;51.638;5.784;2023-07-31T09:40:40;2.17;;;1.40;;
48847;SDS011;36611;51.638;5.784;2023-07-31T09:43:09;1.42;;;1.10;;
48847;SDS011;36611;51.638;5.784;2023-07-31T09:45:37;2.00;;;1.27;;
48847;SDS011;36611;51.638;5.784;2023-07-31T09:48:10;1.40;;;1.20;;
48847;SDS011;36611;51.638;5.784;2023-07-31T09:50:45;1.92;;;1.13;;
48847;SDS011;36611;51.638;5.784;2023-07-31T09:53:13;1.40;;;1.10;;
48847;SDS011;36611;51.638;5.784;2023-07-31T09:55:40;1.90;;;1.17;;
48847;SDS011;36611;51.638;5.784;2023-07-31T09:58:09;3.20;;;1.30;;
48847;SDS011;36611;51.638;5.784;2023-07-31T10:00:37;1.67;;;1.30;;
48847;SDS011;36611;51.638;5.784;2023-07-31T10:03:05;1.70;;;1.20;;
48847;SDS011;36611;51.638;5.784;2023-07-31T10:08:04;2.15;;;1.10;;
48847;SDS011;36611;51.638;5.784;2023-07-31T10:10:33;1.73;;;1.15;;
48847;SDS011;36611;51.638;5.784;2023-07-31T10:13:07;2.22;;;1.40;;
48847;SDS011;36611;51.638;5.784;2023-07-31T10:15:34;2.00;;;1.20;;
48847;SDS011;36611;51.638;5.784;2023-07-31T10:18:02;1.40;;;0.90;;
48847;SDS011;36611;51.638;5.784;2023-07-31T10:20:32;2.08;;;1.30;;
48847;SDS011;36611;51.638;5.784;2023-07-31T10:23:00;1.60;;;1.00;;
48847;SDS011;36611;51.638;5.784;2023-07-31T10:25:27;1.65;;;1.02;;
48847;SDS011;36611;51.638;5.784;2023-07-31T10:27:55;1.80;;;1.40;;
48847;SDS011;36611;51.638;5.784;2023-07-31T10:30:27;2.22;;;1.23;;
48847;SDS011;36611;51.638;5.784;2023-07-31T10:32:56;1.67;;;1.23;;
48847;SDS011;36611;51.638;5.784;2023-07-31T10:35:24;1.55;;;1.10;;
48847;SDS011;36611;51.638;5.784;2023-07-31T10:37:51;1.50;;;1.10;;
48847;SDS011;36611;51.638;5.784;2023-07-31T10:40:19;1.63;;;0.98;;
48847;SDS011;36611;51.638;5.784;2023-07-31T10:42:51;1.92;;;1.05;;
48847;SDS011;36611;51.638;5.784;2023-07-31T10:45:35;1.38;;;1.00;;
48847;SDS011;36611;51.638;5.784;2023-07-31T10:48:15;2.10;;;1.10;;
48847;SDS011;36611;51.638;5.784;2023-07-31T10:50:49;1.98;;;1.05;;
48847;SDS011;36611;51.638;5.784;2023-07-31T10:53:25;1.23;;;0.98;;
48847;SDS011;36611;51.638;5.784;2023-07-31T10:55:58;1.98;;;1.10;;
48847;SDS011;36611;51.638;5.784;2023-07-31T10:58:30;1.63;;;1.13;;
48847;SDS011;36611;51.638;5.784;2023-07-31T11:00:59;1.90;;;0.90;;
48847;SDS011;36611;51.638;5.784;2023-07-31T11:03:47;1.33;;;1.00;;
48847;SDS011;36611;51.638;5.784;2023-07-31T11:06:16;1.42;;;1.08;;
48847;SDS011;36611;51.638;5.784;2023-07-31T11:08:48;1.90;;;1.05;;
48847;SDS011;36611;51.638;5.784;2023-07-31T11:11:17;2.00;;;1.10;;
48847;SDS011;36611;51.638;5.784;2023-07-31T11:13:45;2.40;;;1.30;;
48847;SDS011;36611;51.638;5.784;2023-07-31T11:16:16;2.10;;;1.13;;
48847;SDS011;36611;51.638;5.784;2023-07-31T11:18:45;2.30;;;1.13;;
48847;SDS011;36611;51.638;5.784;2023-07-31T11:21:14;1.90;;;1.10;;
48847;SDS011;36611;51.638;5.784;2023-07-31T11:23:45;1.52;;;1.00;;
48847;SDS011;36611;51.638;5.784;2023-07-31T11:26:19;1.50;;;1.20;;
48847;SDS011;36611;51.638;5.784;2023-07-31T11:28:47;1.52;;;1.00;;
48847;SDS011;36611;51.638;5.784;2023-07-31T11:31:14;2.00;;;1.08;;
48847;SDS011;36611;51.638;5.784;2023-07-31T11:33:41;1.60;;;1.15;;
48847;SDS011;36611;51.638;5.784;2023-07-31T11:36:26;1.80;;;1.13;;
48847;SDS011;36611;51.638;5.784;2023-07-31T11:38:53;1.40;;;0.75;;
48847;SDS011;36611;51.638;5.784;2023-07-31T11:41:19;1.35;;;0.93;;
48847;SDS011;36611;51.638;5.784;2023-07-31T11:43:46;1.50;;;1.00;;
48847;SDS011;36611;51.638;5.784;2023-07-31T11:46:14;1.80;;;1.02;;
48847;SDS011;36611;51.638;5.784;2023-07-31T11:48:41;1.50;;;1.10;;
48847;SDS011;36611;51.638;5.784;2023-07-31T11:51:09;3.22;;;1.00;;
48847;SDS011;36611;51.638;5.784;2023-07-31T11:53:43;1.52;;;1.00;;
48847;SDS011;36611;51.638;5.784;2023-07-31T11:56:13;1.50;;;0.93;;
48847;SDS011;36611;51.638;5.784;2023-07-31T11:58:41;1.52;;;0.95;;
48847;SDS011;36611;51.638;5.784;2023-07-31T12:01:12;1.75;;;1.00;;
48847;SDS011;36611;51.638;5.784;2023-07-31T12:03:43;1.38;;;1.05;;
48847;SDS011;36611;51.638;5.784;2023-07-31T12:06:11;1.08;;;0.88;;
48847;SDS011;36611;51.638;5.784;2023-07-31T12:08:37;1.58;;;1.00;;
48847;SDS011;36611;51.638;5.784;2023-07-31T12:11:04;1.35;;;0.98;;
48847;SDS011;36611;51.638;5.784;2023-07-31T12:13:33;0.88;;;0.73;;
48847;SDS011;36611;51.638;5.784;2023-07-31T12:16:00;2.28;;;1.00;;
48847;SDS011;36611;51.638;5.784;2023-07-31T12:18:36;2.92;;;1.30;;
48847;SDS011;36611;51.638;5.784;2023-07-31T12:23:32;1.42;;;0.82;;
48847;SDS011;36611;51.638;5.784;2023-07-31T12:26:04;1.02;;;0.90;;
48847;SDS011;36611;51.638;5.784;2023-07-31T12:28:40;1.15;;;0.80;;
48847;SDS011;36611;51.638;5.784;2023-07-31T12:31:15;0.90;;;0.77;;
48847;SDS011;36611;51.638;5.784;2023-07-31T12:33:47;1.90;;;1.00;;
48847;SDS011;36611;51.638;5.784;2023-07-31T12:36:17;1.30;;;1.00;;
48847;SDS011;36611;51.638;5.784;2023-07-31T12:38:46;1.13;;;0.73;;
48847;SDS011;36611;51.638;5.784;2023-07-31T12:41:13;0.90;;;0.80;;
48847;SDS011;36611;51.638;5.784;2023-07-31T12:43:40;3.05;;;0.80;;
48847;SDS011;36611;51.638;5.784;2023-07-31T12:46:08;1.30;;;0.90;;
48847;SDS011;36611;51.638;5.784;2023-07-31T12:48:36;1.30;;;0.80;;
48847;SDS011;36611;51.638;5.784;2023-07-31T12:51:04;1.58;;;1.10;;
48847;SDS011;36611;51.638;5.784;2023-07-31T12:53:33;1.88;;;0.90;;
48847;SDS011;36611;51.638;5.784;2023-07-31T12:56:00;1.65;;;1.13;;
48847;SDS011;36611;51.638;5.784;2023-07-31T12:58:27;1.58;;;1.00;;
48847;SDS011;36611;51.638;5.784;2023-07-31T13:00:54;1.10;;;0.88;;
48847;SDS011;36611;51.638;5.784;2023-07-31T13:03:21;1.13;;;0.80;;
48847;SDS011;36611;51.638;5.784;2023-07-31T13:05:47;1.33;;;0.90;;
48847;SDS011;36611;51.638;5.784;2023-07-31T13:08:14;1.30;;;0.80;;
48847;SDS011;36611;51.638;5.784;2023-07-31T13:10:42;1.55;;;0.82;;
48847;SDS011;36611;51.638;5.784;2023-07-31T13:13:09;2.45;;;1.15;;
48847;SDS011;36611;51.638;5.784;2023-07-31T13:15:36;1.58;;;0.90;;
48847;SDS011;36611;51.638;5.784;2023-07-31T13:18:03;1.30;;;0.90;;
48847;SDS011;36611;51.638;5.784;2023-07-31T13:20:30;1.40;;;1.02;;
48847;SDS011;36611;51.638;5.784;2023-07-31T13:22:56;1.15;;;0.77;;
48847;SDS011;36611;51.638;5.784;2023-07-31T13:25:23;1.55;;;1.20;;
48847;SDS011;36611;51.638;5.784;2023-07-31T13:27:49;1.08;;;0.85;;
48847;SDS011;36611;51.638;5.784;2023-07-31T13:30:16;1.02;;;0.90;;
48847;SDS011;36611;51.638;5.784;2023-07-31T13:32:42;1.35;;;1.00;;
48847;SDS011;36611;51.638;5.784;2023-07-31T13:35:09;1.55;;;0.98;;
48847;SDS011;36611;51.638;5.784;2023-07-31T13:37:37;2.28;;;1.08;;
48847;SDS011;36611;51.638;5.784;2023-07-31T13:40:04;1.98;;;1.10;;
48847;SDS011;36611;51.638;5.784;2023-07-31T13:42:32;1.90;;;1.30;;
48847;SDS011;36611;51.638;5.784;2023-07-31T13:44:59;1.27;;;1.00;;
48847;SDS011;36611;51.638;5.784;2023-07-31T13:47:28;2.30;;;1.23;;
48847;SDS011;36611;51.638;5.784;2023-07-31T13:49:55;1.33;;;1.15;;
48847;SDS011;36611;51.638;5.784;2023-07-31T13:52:22;3.38;;;0.82;;
48847;SDS011;36611;51.638;5.784;2023-07-31T13:54:48;2.28;;;1.02;;
48847;SDS011;36611;51.638;5.784;2023-07-31T13:57:15;1.30;;;1.00;;
48847;SDS011;36611;51.638;5.784;2023-07-31T13:59:42;2.88;;;1.23;;
48847;SDS011;36611;51.638;5.784;2023-07-31T14:02:08;1.90;;;1.20;;
48847;SDS011;36611;51.638;5.784;2023-07-31T14:04:35;3.10;;;1.23;;
48847;SDS011;36611;51.638;5.784;2023-07-31T14:07:02;2.17;;;1.00;;
48847;SDS011;36611;51.638;5.784;2023-07-31T14:09:29;2.13;;;1.17;;
48847;SDS011;36611;51.638;5.784;2023-07-31T14:11:56;2.25;;;1.50;;
48847;SDS011;36611;51.638;5.784;2023-07-31T14:14:22;2.80;;;1.00;;
48847;SDS011;36611;51.638;5.784;2023-07-31T14:16:49;2.03;;;1.25;;
48847;SDS011;36611;51.638;5.784;2023-07-31T14:19:16;1.27;;;1.13;;
48847;SDS011;36611;51.638;5.784;2023-07-31T14:21:43;2.30;;;1.02;;
48847;SDS011;36611;51.638;5.784;2023-07-31T14:24:22;2.22;;;1.02;;
48847;SDS011;36611;51.638;5.784;2023-07-31T14:26:49;1.42;;;1.10;;
48847;SDS011;36611;51.638;5.784;2023-07-31T14:29:15;2.80;;;1.40;;
48847;SDS011;36611;51.638;5.784;2023-07-31T14:31:42;1.30;;;1.10;;
48847;SDS011;36611;51.638;5.784;2023-07-31T14:34:09;1.27;;;1.05;;
48847;SDS011;36611;51.638;5.784;2023-07-31T14:36:35;2.22;;;0.98;;
48847;SDS011;36611;51.638;5.784;2023-07-31T14:39:02;3.55;;;1.20;;
48847;SDS011;36611;51.638;5.784;2023-07-31T14:41:29;1.80;;;1.10;;
48847;SDS011;36611;51.638;5.784;2023-07-31T14:43:55;2.30;;;1.38;;
48847;SDS011;36611;51.638;5.784;2023-07-31T14:46:22;2.67;;;1.38;;
48847;SDS011;36611;51.638;5.784;2023-07-31T14:48:49;1.58;;;1.20;;
48847;SDS011;36611;51.638;5.784;2023-07-31T14:51:15;3.03;;;1.13;;
48847;SDS011;36611;51.638;5.784;2023-07-31T14:53:43;1.85;;;1.10;;
48847;SDS011;36611;51.638;5.784;2023-07-31T14:56:10;2.30;;;1.30;;
48847;SDS011;36611;51.638;5.784;2023-07-31T14:58:37;2.88;;;1.30;;
48847;SDS011;36611;51.638;5.784;2023-07-31T15:01:03;2.10;;;1.15;;
48847;SDS011;36611;51.638;5.784;2023-07-31T15:03:30;3.38;;;1.30;;
48847;SDS011;36611;51.638;5.784;2023-07-31T15:05:57;2.40;;;1.38;;
48847;SDS011;36611;51.638;5.784;2023-07-31T15:08:24;2.35;;;1.17;;
48847;SDS011;36611;51.638;5.784;2023-07-31T15:10:50;1.67;;;1.08;;